Time;durP1;ratioP1;P1;durP2;ratioP2;P2;SDS_P1;SDS_P2;PMS_P1;PMS_P2;Temp;Humidity;BMP_temperature;BMP_pressure;BME280_temperature;BME280_humidity;BME280_pressure;Samples;Min_cycle;Max_cycle;Signal;HPM_P1;HPM_P2
2022/03/24 00:02:28;;;;;;;7.9;5.8;;;;;;;4.78;61.63477;947.9249;;;;
2022/03/24 00:04:53;;;;;;;8.3;5.8;;;;;;;4.61;62.31934;947.9241;;;;
2022/03/24 00:07:18;;;;;;;6.8;4.9;;;;;;;4.54;62.48828;947.962;;;;
2022/03/24 00:10:08;;;;;;;6.9;5.4;;;;;;;4.46;62.66992;947.9244;;;;
2022/03/24 00:12:53;;;;;;;6.9;5.2;;;;;;;4.37;63.19629;947.9136;;;;
2022/03/24 00:15:33;;;;;;;6.9;4.7;;;;;;;4.38;62.97266;947.91;;;;
2022/03/24 00:18:10;;;;;;;6.9;4.9;;;;;;;4.38;62.91504;947.8798;;;;
2022/03/24 00:20:42;;;;;;;6.1;5.1;;;;;;;4.35;63.0332;947.902;;;;
2022/03/24 00:23:07;;;;;;;8.8;6;;;;;;;4.48;63.01953;947.8052;;;;
2022/03/24 00:25:37;;;;;;;7.8;5.4;;;;;;;4.6;62.52051;947.8709;;;;
2022/03/24 00:28:07;;;;;;;9.2;5.6;;;;;;;4.71;62.13086;947.8963;;;;
2022/03/24 00:30:31;;;;;;;17.8;7.5;;;;;;;4.74;61.80859;947.8416;;;;
2022/03/24 00:32:56;;;;;;;11.5;6.6;;;;;;;4.69;61.67676;947.8398;;;;
2022/03/24 00:35:27;;;;;;;8;5.7;;;;;;;4.74;61.54883;947.8463;;;;
2022/03/24 00:37:56;;;;;;;8.3;5.8;;;;;;;4.71;61.4668;947.8;;;;
2022/03/24 00:40:21;;;;;;;8.3;5.8;;;;;;;4.73;61.31152;947.7039;;;;
2022/03/24 00:42:49;;;;;;;7.7;6.1;;;;;;;4.7;61.22852;947.6655;;;;
2022/03/24 00:45:14;;;;;;;24.7;7.7;;;;;;;4.57;61.73926;947.6724;;;;
2022/03/24 00:47:45;;;;;;;13;6.6;;;;;;;4.39;62.44531;947.7598;;;;
2022/03/24 00:50:15;;;;;;;10.8;6.6;;;;;;;4.1;63.60645;947.7827;;;;
2022/03/24 00:52:43;;;;;;;9.1;5.8;;;;;;;3.99;64.20703;947.7675;;;;
2022/03/24 00:55:06;;;;;;;9.6;5.7;;;;;;;4.02;64.30273;947.7472;;;;
2022/03/24 00:57:32;;;;;;;7.9;5.8;;;;;;;4.11;64.13672;947.6553;;;;
2022/03/24 00:59:57;;;;;;;7.8;5.8;;;;;;;4.12;64.24902;947.6951;;;;
2022/03/24 01:02:25;;;;;;;7.5;5.5;;;;;;;4.12;64.41895;947.6049;;;;
2022/03/24 01:04:48;;;;;;;7.2;4.8;;;;;;;4.11;64.49609;947.665;;;;
2022/03/24 01:07:14;;;;;;;12.2;7.7;;;;;;;4.08;64.41211;947.649;;;;
2022/03/24 01:09:39;;;;;;;11.5;8.2;;;;;;;4.08;64.2334;947.6313;;;;
2022/03/24 01:12:05;;;;;;;8.2;6.4;;;;;;;4.22;63.92773;947.6241;;;;
2022/03/24 01:14:32;;;;;;;8.9;6.8;;;;;;;4.34;62.97754;947.5731;;;;
2022/03/24 01:16:57;;;;;;;10.8;8;;;;;;;4.48;62.54785;947.5547;;;;
2022/03/24 01:19:21;;;;;;;8.1;5.8;;;;;;;4.53;62.34082;947.5886;;;;
2022/03/24 01:21:47;;;;;;;13.6;6.7;;;;;;;4.35;62.71973;947.579;;;;
2022/03/24 01:25:23;;;;;;;9.1;6;;;;;;;4.23;63.1543;947.5876;;;;
2022/03/24 01:27:49;;;;;;;8.7;5.7;;;;;;;4.05;63.94531;947.5656;;;;
2022/03/24 01:30:14;;;;;;;8.7;5.6;;;;;;;3.97;64.31836;947.587;;;;
2022/03/24 01:32:39;;;;;;;8.6;5.6;;;;;;;3.92;64.52344;947.6152;;;;
2022/03/24 01:35:07;;;;;;;6.7;5.4;;;;;;;3.92;64.5332;947.5953;;;;
2022/03/24 01:37:30;;;;;;;9;5.5;;;;;;;3.91;64.54297;947.5467;;;;
2022/03/24 01:39:55;;;;;;;9.4;5.6;;;;;;;3.89;64.47363;947.604;;;;
2022/03/24 01:42:20;;;;;;;9.6;6.7;;;;;;;3.8;64.86523;947.6063;;;;
2022/03/24 01:44:47;;;;;;;12.8;8.3;;;;;;;3.8;64.97754;947.5656;;;;
2022/03/24 01:47:12;;;;;;;15;10.4;;;;;;;3.81;65.10156;947.5032;;;;
2022/03/24 01:49:37;;;;;;;8.7;6.3;;;;;;;3.83;64.79102;947.4995;;;;
2022/03/24 01:52:02;;;;;;;6;4.6;;;;;;;4.11;63.08984;947.4016;;;;
2022/03/24 01:54:28;;;;;;;5.7;4.6;;;;;;;4.46;61.4873;947.3265;;;;
2022/03/24 01:56:53;;;;;;;13.1;9.4;;;;;;;4.54;61.73535;947.2799;;;;
2022/03/24 01:59:19;;;;;;;9.4;6.4;;;;;;;4.36;62.40723;947.2887;;;;
2022/03/24 02:01:43;;;;;;;13.2;6.7;;;;;;;4.36;62.43945;947.2963;;;;
2022/03/24 02:04:08;;;;;;;7.4;5.4;;;;;;;4.42;62.19043;947.2906;;;;
2022/03/24 02:06:33;;;;;;;33.5;17.9;;;;;;;4.39;62.03809;947.2779;;;;
2022/03/24 02:08:59;;;;;;;41.6;21.4;;;;;;;4.19;62.71973;947.3063;;;;
2022/03/24 02:11:24;;;;;;;15.8;8.6;;;;;;;4.22;62.75781;947.2787;;;;
2022/03/24 02:13:50;;;;;;;12;5.7;;;;;;;4.26;62.42676;947.2864;;;;
2022/03/24 02:16:15;;;;;;;6.9;5.1;;;;;;;4.19;62.78613;947.2816;;;;
2022/03/24 02:18:40;;;;;;;6.1;4.6;;;;;;;4.08;63.08594;947.2932;;;;
2022/03/24 02:21:05;;;;;;;5.7;4.9;;;;;;;3.8;63.9541;947.2676;;;;
2022/03/24 02:24:23;;;;;;;5.6;4.6;;;;;;;3.63;64.64844;947.2675;;;;
2022/03/24 02:26:48;;;;;;;7;4.7;;;;;;;3.42;65.98535;947.2594;;;;
2022/03/24 02:29:15;;;;;;;5.8;4.7;;;;;;;3.4;66.09473;947.2307;;;;
2022/03/24 02:31:40;;;;;;;5.7;4.7;;;;;;;3.47;65.87988;947.2241;;;;
2022/03/24 02:36:45;;;;;;;6.1;4.7;;;;;;;3.47;65.9043;947.2078;;;;
2022/03/24 02:39:10;;;;;;;6.8;4.6;;;;;;;3.5;65.67285;947.2408;;;;
2022/03/24 02:41:35;;;;;;;5.7;4.2;;;;;;;3.52;65.73145;947.2267;;;;
2022/03/24 02:44:00;;;;;;;5.6;4.3;;;;;;;3.46;65.82422;947.2217;;;;
2022/03/24 02:46:26;;;;;;;5.3;4.4;;;;;;;3.31;66.51855;947.2333;;;;
2022/03/24 02:48:51;;;;;;;6.7;4.4;;;;;;;3.38;66.06934;947.1439;;;;
2022/03/24 02:51:38;;;;;;;6.5;4.5;;;;;;;3.32;66.46387;947.2266;;;;
2022/03/24 02:54:03;;;;;;;14.5;6.1;;;;;;;3.22;66.93164;947.2122;;;;
2022/03/24 02:56:28;;;;;;;8.8;4.9;;;;;;;3.34;66.46875;947.1878;;;;
2022/03/24 02:58:54;;;;;;;6.4;4.6;;;;;;;3.43;66.18945;947.1985;;;;
2022/03/24 03:01:21;;;;;;;7.3;4.6;;;;;;;3.41;66.06152;947.2133;;;;
2022/03/24 03:03:44;;;;;;;7.1;4.5;;;;;;;3.37;66.37109;947.2473;;;;
2022/03/24 03:06:11;;;;;;;5.9;4.6;;;;;;;3.34;66.46875;947.2241;;;;
2022/03/24 03:08:35;;;;;;;6.1;4.4;;;;;;;3.28;66.66016;947.1942;;;;
2022/03/24 03:11:00;;;;;;;5.7;4.9;;;;;;;3.23;66.83203;947.2263;;;;
2022/03/24 03:13:27;;;;;;;8.3;4.6;;;;;;;3.24;66.82227;947.2397;;;;
2022/03/24 03:15:51;;;;;;;5.7;4.5;;;;;;;3.17;66.91309;947.2353;;;;
2022/03/24 03:18:17;;;;;;;6.2;4.6;;;;;;;3.11;67.27148;947.2776;;;;
2022/03/24 03:20:42;;;;;;;6.2;4.4;;;;;;;3.11;67.2041;947.287;;;;
2022/03/24 03:23:07;;;;;;;5.8;4.2;;;;;;;3.15;66.9873;947.2413;;;;
2022/03/24 03:25:32;;;;;;;7.2;4.4;;;;;;;3.21;66.62695;947.2683;;;;
2022/03/24 03:27:57;;;;;;;6.3;4.6;;;;;;;3.36;65.97754;947.2439;;;;
2022/03/24 03:30:23;;;;;;;13.7;5.3;;;;;;;3.39;65.94629;947.2072;;;;
2022/03/24 03:32:48;;;;;;;5.9;4.4;;;;;;;3.33;65.84766;947.1902;;;;
2022/03/24 03:35:15;;;;;;;7.4;4.9;;;;;;;3.25;66.14941;947.2908;;;;
2022/03/24 03:37:40;;;;;;;5.4;4.3;;;;;;;3.12;66.62402;947.2687;;;;
2022/03/24 03:40:04;;;;;;;6.2;4.8;;;;;;;2.93;67.41309;947.2951;;;;
2022/03/24 03:42:29;;;;;;;10.3;4.8;;;;;;;2.85;67.77051;947.3103;;;;
2022/03/24 03:44:55;;;;;;;8.1;4.5;;;;;;;2.81;67.93262;947.2299;;;;
2022/03/24 03:47:20;;;;;;;7.1;5.1;;;;;;;2.86;67.84961;947.3392;;;;
2022/03/24 03:49:46;;;;;;;6.3;4.7;;;;;;;2.84;67.78027;947.2941;;;;
2022/03/24 03:52:12;;;;;;;7;4.3;;;;;;;2.78;68.08496;947.3254;;;;
2022/03/24 03:54:37;;;;;;;5.1;4.4;;;;;;;2.8;67.96484;947.2988;;;;
2022/03/24 03:57:03;;;;;;;5.7;4.5;;;;;;;2.73;68.35645;947.24;;;;
2022/03/24 03:59:27;;;;;;;6.2;4.4;;;;;;;2.77;68.26172;947.2639;;;;
2022/03/24 04:02:31;;;;;;;7.7;4.8;;;;;;;2.92;67.41113;947.282;;;;
2022/03/24 04:04:56;;;;;;;6;4.2;;;;;;;2.97;67.11621;947.2726;;;;
2022/03/24 04:07:23;;;;;;;6.2;4.4;;;;;;;2.86;67.70605;947.2693;;;;
2022/03/24 04:09:48;;;;;;;7;4.5;;;;;;;2.74;68.33594;947.2242;;;;
2022/03/24 04:12:14;;;;;;;5.7;4.5;;;;;;;2.66;68.92773;947.2275;;;;
2022/03/24 04:14:40;;;;;;;9.4;5.4;;;;;;;2.55;69.4834;947.2611;;;;
2022/03/24 04:17:05;;;;;;;9.2;5.2;;;;;;;2.57;69.2959;947.2213;;;;
2022/03/24 04:19:31;;;;;;;12;6;;;;;;;2.55;69.29004;947.2126;;;;
2022/03/24 04:21:56;;;;;;;10.8;5.7;;;;;;;2.47;69.3457;947.2463;;;;
2022/03/24 04:25:21;;;;;;;12.5;6.2;;;;;;;2.54;69.2002;947.258;;;;
2022/03/24 04:27:47;;;;;;;17;7.9;;;;;;;2.54;68.99902;947.2228;;;;
2022/03/24 04:30:13;;;;;;;12;6.3;;;;;;;2.64;68.57617;947.2274;;;;
2022/03/24 04:32:37;;;;;;;10.6;5.8;;;;;;;2.72;68.1084;947.253;;;;
2022/03/24 04:35:04;;;;;;;9.4;5;;;;;;;2.79;67.7373;947.2159;;;;
2022/03/24 04:37:29;;;;;;;8.4;5;;;;;;;2.75;67.75586;947.2383;;;;
2022/03/24 04:39:56;;;;;;;7.7;5.2;;;;;;;2.77;67.62305;947.2035;;;;
2022/03/24 04:42:21;;;;;;;11.6;6.1;;;;;;;2.73;67.70703;947.2661;;;;
2022/03/24 04:44:48;;;;;;;11.3;6.5;;;;;;;2.68;67.81152;947.2996;;;;
2022/03/24 04:47:13;;;;;;;8.3;5.6;;;;;;;2.67;67.96582;947.3304;;;;
2022/03/24 04:49:38;;;;;;;15.5;6;;;;;;;2.57;68.50977;947.2933;;;;
2022/03/24 04:52:04;;;;;;;8.5;5.2;;;;;;;2.45;68.97266;947.2766;;;;
2022/03/24 04:54:28;;;;;;;6.7;4.7;;;;;;;2.39;69.27637;947.3086;;;;
2022/03/24 04:56:53;;;;;;;8.5;4.9;;;;;;;2.39;69.04102;947.2661;;;;
2022/03/24 04:59:18;;;;;;;6.6;4.7;;;;;;;2.41;68.90918;947.2917;;;;
2022/03/24 05:01:43;;;;;;;14.3;5.1;;;;;;;2.4;68.77344;947.2633;;;;
2022/03/24 05:04:10;;;;;;;6.3;4.3;;;;;;;2.37;68.67773;947.2427;;;;
2022/03/24 05:06:34;;;;;;;8.3;4.4;;;;;;;2.32;68.96191;947.2698;;;;
2022/03/24 05:09:00;;;;;;;8.8;4.8;;;;;;;2.41;68.51758;947.2656;;;;
2022/03/24 05:11:25;;;;;;;12;5.6;;;;;;;2.42;68.33984;947.2961;;;;
2022/03/24 05:13:51;;;;;;;11.3;6.7;;;;;;;2.54;68.1123;947.3206;;;;
2022/03/24 05:16:15;;;;;;;8.1;6;;;;;;;2.57;68.16211;947.3521;;;;
2022/03/24 05:18:40;;;;;;;9;5.2;;;;;;;2.57;67.52344;947.3153;;;;
2022/03/24 05:21:06;;;;;;;11.4;5.2;;;;;;;2.64;67.33203;947.3861;;;;
2022/03/24 05:23:32;;;;;;;9.4;5;;;;;;;2.65;67.08691;947.3967;;;;
2022/03/24 05:25:57;;;;;;;13.5;5.5;;;;;;;2.65;67.23438;947.3678;;;;
2022/03/24 05:28:24;;;;;;;8.3;5;;;;;;;2.69;67.07129;947.4213;;;;
2022/03/24 05:30:49;;;;;;;13.1;5.8;;;;;;;2.8;66.67383;947.4338;;;;
2022/03/24 05:33:15;;;;;;;19;9.2;;;;;;;2.79;66.65039;947.3879;;;;
2022/03/24 05:35:40;;;;;;;21.7;11.6;;;;;;;2.73;66.80957;947.4359;;;;
2022/03/24 05:38:06;;;;;;;27.7;12;;;;;;;2.67;67.12598;947.4509;;;;
2022/03/24 05:40:31;;;;;;;16.5;9.2;;;;;;;2.62;67.49902;947.419;;;;
2022/03/24 05:42:57;;;;;;;9.6;6.6;;;;;;;2.66;67.49316;947.4441;;;;
2022/03/24 05:45:22;;;;;;;9.7;5.5;;;;;;;2.75;67.21582;947.4314;;;;
2022/03/24 05:47:48;;;;;;;12.9;5.4;;;;;;;2.87;66.96582;947.5072;;;;
2022/03/24 05:50:13;;;;;;;9.4;5.4;;;;;;;2.82;66.93555;947.5283;;;;
2022/03/24 05:52:40;;;;;;;19.6;8.3;;;;;;;2.71;67.64746;947.5267;;;;
2022/03/24 05:55:05;;;;;;;16.6;8;;;;;;;3.12;67.29688;947.5701;;;;
2022/03/24 05:58:17;;;;;;;17.4;8.9;;;;;;;4.25;62.62598;947.4755;;;;
2022/03/24 06:00:44;;;;;;;19.4;8.8;;;;;;;5.26;58.70313;947.4334;;;;
2022/03/24 06:03:09;;;;;;;18.4;10.4;;;;;;;6.45;55.59863;947.4583;;;;
2022/03/24 06:05:34;;;;;;;19.8;10.2;;;;;;;7.49;51.5498;947.3617;;;;
2022/03/24 06:08:00;;;;;;;16.3;7.9;;;;;;;8.28;49.89648;947.3741;;;;
2022/03/24 06:10:24;;;;;;;15.8;7.5;;;;;;;8.91;47.45508;947.4045;;;;
2022/03/24 06:12:49;;;;;;;13.4;6.1;;;;;;;8.71;47.56836;947.3766;;;;
2022/03/24 06:15:14;;;;;;;14;6.2;;;;;;;8.09;49.01172;947.4033;;;;
2022/03/24 06:17:43;;;;;;;15.8;5.9;;;;;;;8.83;47.29883;947.3292;;;;
2022/03/24 06:20:08;;;;;;;11.4;5.4;;;;;;;8.54;47.55078;947.3297;;;;
2022/03/24 06:22:33;;;;;;;16.2;6;;;;;;;10.23;44.2002;947.2922;;;;
2022/03/24 06:24:58;;;;;;;10.7;4.6;;;;;;;11.06;41.9541;947.2533;;;;
2022/03/24 06:27:23;;;;;;;17.3;7.3;;;;;;;10.67;42.50879;947.3457;;;;
2022/03/24 06:29:49;;;;;;;16.3;7.9;;;;;;;10.63;43.28223;947.2844;;;;
2022/03/24 06:32:15;;;;;;;12.2;5.4;;;;;;;10.08;43.88867;947.3127;;;;
2022/03/24 06:34:39;;;;;;;12.8;5.6;;;;;;;10.08;44.33301;947.2625;;;;
2022/03/24 06:37:50;;;;;;;9.5;5;;;;;;;10.51;43.56641;947.2914;;;;
2022/03/24 06:40:14;;;;;;;10.4;5.4;;;;;;;10.2;43.63867;947.213;;;;
2022/03/24 06:42:39;;;;;;;15.6;5.6;;;;;;;10.59;43.27734;947.2083;;;;
2022/03/24 06:45:06;;;;;;;10.4;5.3;;;;;;;10.32;42.77148;947.2053;;;;
2022/03/24 06:47:29;;;;;;;22.8;9.5;;;;;;;11.1;41.14453;947.2556;;;;
2022/03/24 06:49:54;;;;;;;9.3;5.7;;;;;;;10.95;42.33105;947.2385;;;;
2022/03/24 06:52:19;;;;;;;15.6;7.7;;;;;;;11.43;39.23145;947.2346;;;;
2022/03/24 06:54:44;;;;;;;13.6;6.1;;;;;;;11.48;39.04199;947.1989;;;;
2022/03/24 06:57:14;;;;;;;8.7;4;;;;;;;11.13;38.55273;947.2477;;;;
2022/03/24 06:59:35;;;;;;;8.6;2.9;;;;;;;10.74;38.49512;947.212;;;;
2022/03/24 07:02:05;;;;;;;8.5;3.1;;;;;;;11.82;37.28516;947.196;;;;
2022/03/24 07:04:26;;;;;;;4.5;2.5;;;;;;;12.19;36.60645;947.1591;;;;
2022/03/24 07:06:51;;;;;;;5.2;2.7;;;;;;;13.27;34.45801;947.0978;;;;
2022/03/24 07:09:18;;;;;;;15.3;3.2;;;;;;;14.68;32.71289;947.1006;;;;
2022/03/24 07:11:43;;;;;;;8.6;3;;;;;;;15.38;32.88086;947.1028;;;;
2022/03/24 07:14:08;;;;;;;4.7;2.4;;;;;;;16.23;31.45313;947.0907;;;;
2022/03/24 07:16:35;;;;;;;6.6;3;;;;;;;17.24;29.92578;947.0513;;;;
2022/03/24 07:19:00;;;;;;;9.4;3.3;;;;;;;18.52;28.4082;947.0144;;;;
2022/03/24 07:21:25;;;;;;;6.3;2.3;;;;;;;18.11;26.66211;947.0479;;;;
2022/03/24 07:23:51;;;;;;;3.3;1.9;;;;;;;18.44;25.53125;946.9174;;;;
2022/03/24 07:26:16;;;;;;;4.9;2.4;;;;;;;15.65;28.76563;947.0905;;;;
2022/03/24 07:28:41;;;;;;;2.6;1.8;;;;;;;16;29.27441;947.0092;;;;
2022/03/24 07:31:06;;;;;;;3.8;2.1;;;;;;;15.45;29.29492;947.0184;;;;
2022/03/24 07:33:31;;;;;;;3.3;2;;;;;;;15.9;30.45898;946.98;;;;
2022/03/24 07:35:56;;;;;;;2.9;1.8;;;;;;;16.86;28.02344;947.0126;;;;
2022/03/24 07:38:22;;;;;;;2.9;2;;;;;;;17.43;27.17676;946.9827;;;;
2022/03/24 07:40:46;;;;;;;6.6;2.3;;;;;;;15.94;28.55371;946.9881;;;;
2022/03/24 07:43:11;;;;;;;5;2.3;;;;;;;17.78;27.28125;946.9417;;;;
2022/03/24 07:45:39;;;;;;;5.3;2.2;;;;;;;19.38;25.52734;946.9598;;;;
2022/03/24 07:48:03;;;;;;;2.7;1.8;;;;;;;18.42;24.87891;946.8938;;;;
2022/03/24 07:50:28;;;;;;;5.5;2.2;;;;;;;19.25;24.00586;946.9886;;;;
2022/03/24 07:52:53;;;;;;;2.6;1.6;;;;;;;19.12;23.82422;946.9767;;;;
2022/03/24 07:55:19;;;;;;;2.7;1.9;;;;;;;19.85;23.89844;946.975;;;;
2022/03/24 07:57:43;;;;;;;2.4;1.9;;;;;;;19.95;23.9502;946.9633;;;;
2022/03/24 08:00:08;;;;;;;11.2;2.9;;;;;;;21.66;22.80176;946.9227;;;;
2022/03/24 08:02:34;;;;;;;3.4;2;;;;;;;22.77;20.56934;946.8614;;;;
2022/03/24 08:04:59;;;;;;;4.7;2;;;;;;;23.93;19.41016;946.9033;;;;
2022/03/24 08:07:24;;;;;;;2.2;1.6;;;;;;;19.32;23.03125;946.9064;;;;
2022/03/24 08:09:50;;;;;;;1.9;1.2;;;;;;;20.35;22.43066;946.8354;;;;
2022/03/24 08:12:15;;;;;;;5.5;1.7;;;;;;;22.55;20.32422;946.8273;;;;
2022/03/24 08:14:39;;;;;;;2.7;1.4;;;;;;;22.99;20.21484;946.8527;;;;
2022/03/24 08:17:05;;;;;;;3.2;1.7;;;;;;;23.01;21.28516;946.8116;;;;
2022/03/24 08:19:30;;;;;;;3.7;1.7;;;;;;;25.03;19.48145;946.752;;;;
2022/03/24 08:21:55;;;;;;;1.9;1.6;;;;;;;26.58;17.63086;946.7658;;;;
2022/03/24 08:24:21;;;;;;;3.6;1.4;;;;;;;28.19;16.57715;946.7422;;;;
2022/03/24 08:26:46;;;;;;;2;1.5;;;;;;;23.76;18.17969;946.7589;;;;
2022/03/24 08:29:12;;;;;;;1.9;1.4;;;;;;;26.53;17.53418;946.7219;;;;
2022/03/24 08:31:38;;;;;;;1.9;1.5;;;;;;;28.36;16.47656;946.7503;;;;
2022/03/24 08:34:03;;;;;;;3.4;1.4;;;;;;;23.07;18.48047;946.7397;;;;
2022/03/24 08:36:28;;;;;;;3.6;1.3;;;;;;;26.48;17.18945;946.7017;;;;
2022/03/24 08:38:56;;;;;;;3.2;1.6;;;;;;;27.91;15.99707;946.6537;;;;
2022/03/24 08:41:21;;;;;;;4.3;1.6;;;;;;;29.29;15.65332;946.6104;;;;
2022/03/24 08:43:46;;;;;;;5.1;1.5;;;;;;;29.54;13.95703;946.6075;;;;
2022/03/24 08:46:11;;;;;;;2.3;1.5;;;;;;;27.4;16.01465;946.6177;;;;
2022/03/24 08:48:36;;;;;;;2.1;1.3;;;;;;;27.26;15.72461;946.5744;;;;
2022/03/24 08:51:03;;;;;;;1.7;1.3;;;;;;;28.11;15.42188;946.5466;;;;
2022/03/24 08:53:28;;;;;;;1.9;1.5;;;;;;;28.5;14.92383;946.5927;;;;
2022/03/24 08:55:55;;;;;;;1.6;1.5;;;;;;;29.6;14.69824;946.5731;;;;
2022/03/24 08:58:20;;;;;;;10.1;1.8;;;;;;;30.25;13.57324;946.5234;;;;
2022/03/24 09:00:46;;;;;;;4.7;1.5;;;;;;;29.97;14.30469;946.5034;;;;
2022/03/24 09:03:11;;;;;;;2.5;1.4;;;;;;;30.59;13.48828;946.4562;;;;
2022/03/24 09:05:37;;;;;;;25;4;;;;;;;30.59;13.67871;946.4757;;;;
2022/03/24 09:08:02;;;;;;;2;1.6;;;;;;;29.5;14.11035;946.4694;;;;
2022/03/24 09:10:30;;;;;;;11.9;1.8;;;;;;;29.77;14.0957;946.4196;;;;
2022/03/24 09:12:56;;;;;;;6.6;1.6;;;;;;;28.58;14.86719;946.4847;;;;
2022/03/24 09:15:21;;;;;;;1.6;1.4;;;;;;;29.13;14.45605;946.392;;;;
2022/03/24 09:17:46;;;;;;;3.5;1.6;;;;;;;30.1;13.67578;946.442;;;;
2022/03/24 09:20:12;;;;;;;3;1.8;;;;;;;30.02;14.67578;946.3761;;;;
2022/03/24 09:22:37;;;;;;;2.8;1.6;;;;;;;28.79;16.00488;946.3608;;;;
2022/03/24 09:25:02;;;;;;;2.7;1.8;;;;;;;27.87;17.45605;946.3977;;;;
2022/03/24 09:27:27;;;;;;;2.9;1.8;;;;;;;29.05;14.85938;946.3103;;;;
2022/03/24 09:29:52;;;;;;;14.8;2.5;;;;;;;28.27;15.22559;946.3705;;;;
2022/03/24 09:32:17;;;;;;;1.9;1.8;;;;;;;28.07;15.69336;946.3931;;;;
2022/03/24 09:34:43;;;;;;;4.7;1.8;;;;;;;28.4;15.99023;946.3907;;;;
2022/03/24 09:37:08;;;;;;;3.7;1.5;;;;;;;29.11;15.14648;946.2747;;;;
2022/03/24 09:39:33;;;;;;;4.1;1.5;;;;;;;27.21;16.60059;946.3791;;;;
2022/03/24 09:41:58;;;;;;;1.8;1.6;;;;;;;27.62;16.33105;946.3695;;;;
2022/03/24 09:44:24;;;;;;;2.1;1.2;;;;;;;28.47;15.67188;946.3267;;;;
2022/03/24 09:46:49;;;;;;;1.3;1.2;;;;;;;28.19;15.47168;946.3047;;;;
2022/03/24 09:49:16;;;;;;;1.5;1.4;;;;;;;27.85;14.17773;946.2878;;;;
2022/03/24 09:51:43;;;;;;;2;1.7;;;;;;;27;15.1709;946.2436;;;;
2022/03/24 09:54:07;;;;;;;2.5;1.6;;;;;;;27.28;15.01367;946.2113;;;;
2022/03/24 09:56:32;;;;;;;2.9;2.1;;;;;;;27.6;14.8584;946.2271;;;;
2022/03/24 09:58:58;;;;;;;3;2.1;;;;;;;26.77;15.81445;946.1961;;;;
2022/03/24 10:01:23;;;;;;;3.3;2.1;;;;;;;27.37;15.34961;946.1457;;;;
2022/03/24 10:03:50;;;;;;;2.6;2;;;;;;;26.64;16.60352;946.1049;;;;
2022/03/24 10:06:15;;;;;;;2.1;1.7;;;;;;;26.19;16.84766;946.0717;;;;
2022/03/24 10:08:41;;;;;;;2.5;2;;;;;;;26.09;17.29297;946.1141;;;;
2022/03/24 10:11:06;;;;;;;2.9;2;;;;;;;26.15;16.69141;946.0725;;;;
2022/03/24 10:13:32;;;;;;;1.9;1.7;;;;;;;26.58;16.35254;946.0923;;;;
2022/03/24 10:15:57;;;;;;;3.4;1.8;;;;;;;26.26;17.38184;946.0302;;;;
2022/03/24 10:18:22;;;;;;;2.1;1.9;;;;;;;25.48;17.88379;946.0195;;;;
2022/03/24 10:20:47;;;;;;;2.1;1.9;;;;;;;25.07;18.02051;945.8983;;;;
2022/03/24 10:23:12;;;;;;;3.7;2.5;;;;;;;24.9;18.5918;945.9523;;;;
2022/03/24 10:25:39;;;;;;;3.4;1.8;;;;;;;25.68;18.0332;945.946;;;;
2022/03/24 10:28:04;;;;;;;7;3;;;;;;;26.22;17.33301;945.8885;;;;
2022/03/24 10:30:30;;;;;;;2.7;2.1;;;;;;;25.8;17.75391;945.8535;;;;
2022/03/24 10:32:55;;;;;;;4.7;2.6;;;;;;;25.51;17.79004;945.903;;;;
2022/03/24 10:35:20;;;;;;;3.1;2.4;;;;;;;25.77;17.87109;945.8848;;;;
2022/03/24 10:37:46;;;;;;;4.5;2.6;;;;;;;26.53;17.4873;945.9481;;;;
2022/03/24 10:40:13;;;;;;;4;2.6;;;;;;;25.95;17.85449;945.8547;;;;
2022/03/24 10:42:38;;;;;;;3.6;2.8;;;;;;;25.75;17.78809;945.8596;;;;
2022/03/24 10:45:03;;;;;;;5.3;2.7;;;;;;;25.08;19.36621;945.8912;;;;
2022/03/24 10:47:28;;;;;;;3.4;2.5;;;;;;;25.13;18.60059;945.8081;;;;
2022/03/24 10:49:53;;;;;;;3.9;2.9;;;;;;;24.9;19.37012;945.8375;;;;
2022/03/24 10:52:18;;;;;;;7.6;3.1;;;;;;;24.63;18.48633;945.7565;;;;
2022/03/24 10:54:46;;;;;;;3.4;2.9;;;;;;;25.08;18.50488;945.7341;;;;
2022/03/24 10:57:08;;;;;;;3.8;2.8;;;;;;;26.22;17.88965;945.7056;;;;
2022/03/24 10:59:33;;;;;;;4.5;2.8;;;;;;;26.46;17.5791;945.7952;;;;
2022/03/24 11:01:59;;;;;;;4.6;3;;;;;;;26.94;17.89453;945.7283;;;;
2022/03/24 11:04:24;;;;;;;4.1;2.7;;;;;;;26.14;18.58398;945.668;;;;
2022/03/24 11:06:49;;;;;;;4;3;;;;;;;27.11;16.83398;945.6973;;;;
2022/03/24 11:09:15;;;;;;;4.2;2.4;;;;;;;28.08;16.13379;945.6489;;;;
2022/03/24 11:11:41;;;;;;;2.9;2.6;;;;;;;28.59;16.1875;945.6399;;;;
2022/03/24 11:14:08;;;;;;;4.2;2.4;;;;;;;28.62;15.54688;945.6319;;;;
2022/03/24 11:16:33;;;;;;;5.2;2.7;;;;;;;28.62;15.49902;945.5869;;;;
2022/03/24 11:18:58;;;;;;;5.3;2.9;;;;;;;27.33;16.96094;945.54;;;;
2022/03/24 11:21:23;;;;;;;3.1;2.4;;;;;;;26.98;17.05469;945.5345;;;;
2022/03/24 11:23:48;;;;;;;3.8;2.3;;;;;;;27.37;17.06934;945.5847;;;;
2022/03/24 11:26:15;;;;;;;6.6;2.7;;;;;;;27.52;16.12598;945.4943;;;;
2022/03/24 11:28:41;;;;;;;3;2.7;;;;;;;26.75;17.68555;945.4304;;;;
2022/03/24 11:31:05;;;;;;;3.2;2.4;;;;;;;26.94;17.05273;945.4194;;;;
2022/03/24 11:33:30;;;;;;;3.5;2.6;;;;;;;27.57;16.76855;945.4313;;;;
2022/03/24 11:35:55;;;;;;;3.2;2.7;;;;;;;27.04;17.37695;945.4191;;;;
2022/03/24 11:38:20;;;;;;;3.7;2.6;;;;;;;26.74;17.64941;945.3951;;;;
2022/03/24 11:40:46;;;;;;;4.4;2.6;;;;;;;27.41;16.38281;945.3497;;;;
2022/03/24 11:43:10;;;;;;;4.8;2.8;;;;;;;27.46;16.87109;945.3317;;;;
2022/03/24 11:45:35;;;;;;;3;2.4;;;;;;;27.75;16.53809;945.3065;;;;
2022/03/24 11:48:03;;;;;;;4;2.8;;;;;;;27.58;17.54004;945.2989;;;;
2022/03/24 11:50:27;;;;;;;5.3;3.1;;;;;;;27.16;17.21582;945.255;;;;
2022/03/24 11:52:53;;;;;;;6.8;3.4;;;;;;;27.17;18.16406;945.2415;;;;
2022/03/24 11:55:19;;;;;;;6;3.7;;;;;;;27.92;16.63867;945.1502;;;;
2022/03/24 11:57:44;;;;;;;5.7;3.7;;;;;;;26.82;18.1377;945.1308;;;;
2022/03/24 12:02:34;;;;;;;4.6;3.5;;;;;;;27.3;17.31543;945.1022;;;;
2022/03/24 12:05:00;;;;;;;4.2;3.5;;;;;;;26.87;17.59473;945.1161;;;;
2022/03/24 12:07:25;;;;;;;6.9;3.4;;;;;;;26.44;18.88086;944.9937;;;;
2022/03/24 12:09:50;;;;;;;5.1;3.7;;;;;;;26.28;18.61328;945.0723;;;;
2022/03/24 12:12:15;;;;;;;6.3;3.6;;;;;;;26.08;18.85352;945.035;;;;
2022/03/24 12:14:40;;;;;;;5.8;3.6;;;;;;;25.91;19.80469;944.9852;;;;
2022/03/24 12:17:07;;;;;;;5.5;3.9;;;;;;;25.99;19.33496;944.8867;;;;
2022/03/24 12:19:30;;;;;;;5.4;3.6;;;;;;;26.41;18.86719;944.9802;;;;
2022/03/24 12:21:55;;;;;;;9.7;4.3;;;;;;;26.17;19.34277;944.8298;;;;
2022/03/24 12:24:20;;;;;;;7;3.9;;;;;;;26.2;19.2959;944.9071;;;;
2022/03/24 12:26:46;;;;;;;5.5;4.1;;;;;;;26.4;18.7959;944.915;;;;
2022/03/24 12:29:11;;;;;;;6.6;4.3;;;;;;;25.18;20.19629;944.7626;;;;
2022/03/24 12:33:06;;;;;;;8.1;4.4;;;;;;;24.9;20.78613;944.7668;;;;
2022/03/24 12:35:31;;;;;;;6.4;4.6;;;;;;;25.33;19.89648;944.7389;;;;
2022/03/24 12:37:56;;;;;;;6.5;3.9;;;;;;;26.26;19.2041;944.806;;;;
2022/03/24 12:40:21;;;;;;;7.1;4;;;;;;;26.79;18.87109;944.744;;;;
2022/03/24 12:42:47;;;;;;;6;4.4;;;;;;;26.67;19.25781;944.6666;;;;
2022/03/24 12:45:12;;;;;;;12.2;4.9;;;;;;;25.1;20.08691;944.6525;;;;
2022/03/24 12:47:38;;;;;;;6.2;4.4;;;;;;;25.04;20.95801;944.702;;;;
2022/03/24 12:50:03;;;;;;;6.3;4.6;;;;;;;26;19.3584;944.6358;;;;
2022/03/24 12:52:28;;;;;;;7.2;4.2;;;;;;;25.71;19.72461;944.5644;;;;
2022/03/24 12:54:55;;;;;;;8.6;4.8;;;;;;;25.11;20.75977;944.5853;;;;
2022/03/24 12:57:19;;;;;;;7.6;5.1;;;;;;;24.85;20.9248;944.5126;;;;
2022/03/24 12:59:45;;;;;;;10.8;5.3;;;;;;;26.26;19.13379;944.5905;;;;
2022/03/24 13:02:11;;;;;;;8.4;4.9;;;;;;;27.44;18.1748;944.6052;;;;
2022/03/24 13:04:35;;;;;;;7;5.3;;;;;;;27.6;18.0752;944.5682;;;;
2022/03/24 13:07:00;;;;;;;11.7;4.8;;;;;;;26.9;18.50879;944.5898;;;;
2022/03/24 13:09:25;;;;;;;7.5;4.8;;;;;;;25.74;19.66699;944.5542;;;;
2022/03/24 13:11:55;;;;;;;6.9;4.9;;;;;;;26.06;19.49121;944.5226;;;;
2022/03/24 13:14:19;;;;;;;6.8;4.7;;;;;;;26;20.19824;944.4959;;;;
2022/03/24 13:16:44;;;;;;;9.4;4.4;;;;;;;27.38;18.65918;944.4171;;;;
2022/03/24 13:19:09;;;;;;;8;4.5;;;;;;;28.87;16.51953;944.493;;;;
2022/03/24 13:21:37;;;;;;;10.5;5;;;;;;;28.21;17.46973;944.4392;;;;
2022/03/24 13:24:03;;;;;;;7.8;5.6;;;;;;;26.95;18.36914;944.3686;;;;
2022/03/24 13:26:27;;;;;;;7.5;5.7;;;;;;;26.27;19.3584;944.3329;;;;
2022/03/24 13:28:52;;;;;;;6.7;5.3;;;;;;;26.52;18.77734;944.3932;;;;
2022/03/24 13:31:18;;;;;;;7.8;5.6;;;;;;;27.06;17.75684;944.3306;;;;
2022/03/24 13:33:54;;;;;;;6.6;4.7;;;;;;;26.75;18.51465;944.2717;;;;
2022/03/24 13:36:21;;;;;;;6.7;5.3;;;;;;;26.99;17.91992;944.2612;;;;
2022/03/24 13:38:46;;;;;;;8.7;5.3;;;;;;;25.76;19.4668;944.2408;;;;
2022/03/24 13:41:12;;;;;;;7.3;4.8;;;;;;;26.61;18.11816;944.2202;;;;
2022/03/24 13:43:37;;;;;;;9.1;5.3;;;;;;;25.81;19.23242;944.2048;;;;
2022/03/24 13:46:03;;;;;;;8;5.5;;;;;;;24.77;20.54395;944.2275;;;;
2022/03/24 13:48:28;;;;;;;9.4;4.8;;;;;;;25.64;19.66211;944.1876;;;;
2022/03/24 13:50:53;;;;;;;7.9;5.1;;;;;;;26.03;19.99805;944.1742;;;;
2022/03/24 13:53:19;;;;;;;7.5;5.2;;;;;;;26.15;18.86816;944.1057;;;;
2022/03/24 13:55:45;;;;;;;8.5;5.2;;;;;;;26.65;18.66406;944.11;;;;
2022/03/24 13:58:10;;;;;;;7.2;5.2;;;;;;;25.63;19.21289;944.0931;;;;
2022/03/24 14:00:34;;;;;;;7.7;5.4;;;;;;;24.72;19.61035;944.1088;;;;
2022/03/24 14:02:59;;;;;;;6.3;5;;;;;;;24.36;20.51367;944.0884;;;;
2022/03/24 14:05:24;;;;;;;6.4;5.5;;;;;;;24.53;19.97852;944.0795;;;;
2022/03/24 14:07:57;;;;;;;6.6;5.5;;;;;;;24.52;19.97852;944.0195;;;;
2022/03/24 14:10:23;;;;;;;7.9;5.3;;;;;;;24.32;20.24023;943.9647;;;;
2022/03/24 14:12:47;;;;;;;7.1;5.2;;;;;;;23.29;21.74512;943.9813;;;;
2022/03/24 14:15:13;;;;;;;7;5.3;;;;;;;23.16;22.18555;944.0258;;;;
2022/03/24 14:17:37;;;;;;;7.4;5.7;;;;;;;23.68;21.01172;944.0359;;;;
2022/03/24 14:20:03;;;;;;;7.5;5.2;;;;;;;23.32;21.42969;944.0422;;;;
2022/03/24 14:22:28;;;;;;;6.9;5.4;;;;;;;23.2;20.97754;943.9919;;;;
2022/03/24 14:24:53;;;;;;;6.8;5.5;;;;;;;23.38;21.30273;943.981;;;;
2022/03/24 14:27:19;;;;;;;6.5;5;;;;;;;23.09;21.05469;943.8994;;;;
2022/03/24 14:29:44;;;;;;;9.4;5.3;;;;;;;22.54;22.38867;943.9719;;;;
2022/03/24 14:32:10;;;;;;;7.2;5.3;;;;;;;21.61;22.85742;943.9517;;;;